createdAt,value
2022-12-14T00:01:40.656Z,16.30
2022-12-14T00:04:07.491Z,19.50
2022-12-14T00:06:34.262Z,18.90
2022-12-14T00:09:03.333Z,16.50
2022-12-14T00:11:32.134Z,16.00
2022-12-14T00:14:00.996Z,18.60
2022-12-14T00:16:30.676Z,16.00
2022-12-14T00:18:59.452Z,18.00
2022-12-14T00:21:27.383Z,15.50
2022-12-14T00:23:55.138Z,16.00
2022-12-14T00:26:24.484Z,15.00
2022-12-14T00:28:53.254Z,15.80
2022-12-14T00:31:22.431Z,16.80
2022-12-14T00:33:49.957Z,15.40
2022-12-14T00:36:16.975Z,15.00
2022-12-14T00:38:43.871Z,17.40
2022-12-14T00:41:11.939Z,48.80
2022-12-14T00:43:39.207Z,26.70
2022-12-14T00:46:06.445Z,29.40
2022-12-14T00:48:33.541Z,19.60
2022-12-14T00:51:00.828Z,15.90
2022-12-14T00:53:27.960Z,23.60
2022-12-14T00:55:55.046Z,16.30
2022-12-14T00:58:23.790Z,17.80
2022-12-14T01:01:06.723Z,16.00
2022-12-14T01:03:34.346Z,17.60
2022-12-14T01:06:02.140Z,18.40
2022-12-14T01:08:34.694Z,16.30
2022-12-14T01:11:07.161Z,16.00
2022-12-14T01:13:34.929Z,14.40
2022-12-14T01:16:11.795Z,15.30
2022-12-14T01:18:40.597Z,16.00
2022-12-14T01:21:11.894Z,19.40
2022-12-14T01:23:39.570Z,20.00
2022-12-14T01:26:06.400Z,23.50
2022-12-14T01:28:34.615Z,29.00
2022-12-14T01:31:11.777Z,23.60
2022-12-14T01:33:38.965Z,25.60
2022-12-14T01:36:08.354Z,28.80
2022-12-14T01:38:35.790Z,23.80
2022-12-14T01:41:03.227Z,23.90
2022-12-14T01:43:52.364Z,25.10
2022-12-14T01:46:30.842Z,21.60
2022-12-14T01:49:22.713Z,18.50
2022-12-14T01:52:14.657Z,20.10
2022-12-14T01:54:48.856Z,17.10
2022-12-14T01:57:21.818Z,16.10
2022-12-14T01:59:48.905Z,17.70
2022-12-14T02:02:18.397Z,21.00
2022-12-14T02:04:51.697Z,20.10
2022-12-14T02:07:18.645Z,21.10
2022-12-14T02:09:46.584Z,20.70
2022-12-14T02:12:21.096Z,21.30
2022-12-14T02:14:48.195Z,20.90
2022-12-14T02:17:16.203Z,21.00
2022-12-14T02:19:48.936Z,16.00
2022-12-14T02:22:45.141Z,19.70
2022-12-14T02:25:45.442Z,21.10
2022-12-14T02:28:47.142Z,19.10
2022-12-14T02:31:32.383Z,16.00
2022-12-14T02:34:31.757Z,18.40
2022-12-14T02:37:21.929Z,16.20
2022-12-14T02:39:57.813Z,16.80
2022-12-14T02:42:54.259Z,17.60
2022-12-14T02:45:33.211Z,16.60
2022-12-14T02:48:06.726Z,18.10
2022-12-14T02:50:43.541Z,27.90
2022-12-14T02:53:13.344Z,18.50
2022-12-14T02:55:49.478Z,17.90
2022-12-14T02:58:42.482Z,13.10
2022-12-14T03:01:15.547Z,12.50
2022-12-14T03:03:42.816Z,14.20
2022-12-14T03:06:25.586Z,17.40
2022-12-14T03:09:15.910Z,16.00
2022-12-14T03:11:52.144Z,19.30
2022-12-14T03:14:26.899Z,17.60
2022-12-14T03:16:59.955Z,15.40
2022-12-14T03:19:39.407Z,18.60
2022-12-14T03:22:17.427Z,18.50
2022-12-14T03:24:51.671Z,19.90
2022-12-14T03:27:22.587Z,13.50
2022-12-14T03:30:43.918Z,17.60
2022-12-14T03:33:11.286Z,14.00
2022-12-14T03:35:44.237Z,12.60
2022-12-14T03:38:24.465Z,16.00
2022-12-14T03:41:19.927Z,15.60
2022-12-14T03:44:02.199Z,13.90
2022-12-14T03:46:53.366Z,15.50
2022-12-14T03:49:24.038Z,16.70
2022-12-14T03:52:01.264Z,14.30
2022-12-14T03:54:57.566Z,15.40
2022-12-14T03:57:39.815Z,13.70
2022-12-14T04:00:10.151Z,15.80
2022-12-14T04:02:49.905Z,14.40
2022-12-14T04:05:32.565Z,18.10
2022-12-14T04:08:18.661Z,15.70
2022-12-14T04:11:08.888Z,17.10
2022-12-14T04:14:00.185Z,17.60
2022-12-14T04:16:51.790Z,15.30
2022-12-14T04:19:45.805Z,14.60
2022-12-14T04:22:25.527Z,12.80
2022-12-14T04:25:11.236Z,16.60
2022-12-14T04:27:46.762Z,14.20
2022-12-14T04:30:14.659Z,13.10
2022-12-14T04:32:41.536Z,13.60
2022-12-14T04:35:11.812Z,13.50
2022-12-14T04:37:42.907Z,14.20
2022-12-14T04:40:18.879Z,17.90
2022-12-14T04:42:52.214Z,21.10
2022-12-14T04:45:34.645Z,16.20
2022-12-14T04:48:12.847Z,14.90
2022-12-14T04:50:47.010Z,16.80
2022-12-14T04:53:21.547Z,18.00
2022-12-14T04:55:56.290Z,17.80
2022-12-14T04:58:30.133Z,14.00
2022-12-14T05:01:35.035Z,15.30
2022-12-14T05:04:30.076Z,14.50
2022-12-14T05:07:12.179Z,14.50
2022-12-14T05:10:01.314Z,14.40
2022-12-14T05:12:50.000Z,15.10
2022-12-14T05:15:25.215Z,13.00
2022-12-14T05:17:52.664Z,17.00
2022-12-14T05:20:22.367Z,19.20
2022-12-14T05:22:49.629Z,18.00
2022-12-14T05:25:16.757Z,19.80
2022-12-14T05:27:43.612Z,16.20
2022-12-14T05:30:11.103Z,17.80
2022-12-14T05:32:38.068Z,16.20
2022-12-14T05:35:06.085Z,18.20
2022-12-14T05:37:32.884Z,16.40
2022-12-14T05:39:59.956Z,16.70
2022-12-14T05:42:26.837Z,16.60
2022-12-14T05:44:53.668Z,16.10
2022-12-14T05:47:20.635Z,15.90
2022-12-14T05:49:49.402Z,15.10
2022-12-14T05:52:17.097Z,12.80
2022-12-14T05:54:43.848Z,24.00
2022-12-14T05:57:10.625Z,17.90
2022-12-14T05:59:37.485Z,17.50
2022-12-14T06:02:05.115Z,17.40
2022-12-14T06:04:32.433Z,17.80
2022-12-14T06:06:59.247Z,16.40
2022-12-14T06:09:26.075Z,16.70
2022-12-14T06:11:52.901Z,18.60
2022-12-14T06:14:19.754Z,17.20
2022-12-14T06:16:46.990Z,17.80
2022-12-14T06:19:14.343Z,16.50
2022-12-14T06:21:43.150Z,16.10
2022-12-14T06:24:11.916Z,16.70
2022-12-14T06:26:42.330Z,13.90
2022-12-14T06:29:17.708Z,15.80
2022-12-14T06:31:45.225Z,16.00
2022-12-14T06:34:17.102Z,15.20
2022-12-14T06:36:46.377Z,15.70
2022-12-14T06:39:16.015Z,18.00
2022-12-14T06:41:43.473Z,13.70
2022-12-14T06:44:13.053Z,17.70
2022-12-14T06:46:40.139Z,15.90
2022-12-14T06:49:07.814Z,17.70
2022-12-14T06:51:39.009Z,15.50
2022-12-14T06:54:06.752Z,18.30
2022-12-14T06:56:33.574Z,19.10
2022-12-14T06:59:00.722Z,17.00
2022-12-14T07:01:28.699Z,20.00
2022-12-14T07:03:58.815Z,20.50
2022-12-14T07:06:28.589Z,17.70
2022-12-14T07:08:56.930Z,18.60
2022-12-14T07:11:28.725Z,18.90
2022-12-14T07:13:56.292Z,18.50
2022-12-14T07:16:25.399Z,19.20
2022-12-14T07:18:53.815Z,17.20
2022-12-14T07:21:22.252Z,16.70
2022-12-14T07:23:51.790Z,19.00
2022-12-14T07:26:23.306Z,17.30
2022-12-14T07:28:51.042Z,18.70
2022-12-14T07:31:26.416Z,18.60
2022-12-14T07:33:55.375Z,24.20
2022-12-14T07:36:23.629Z,24.10
2022-12-14T07:38:51.904Z,24.10
2022-12-14T07:41:23.131Z,21.10
2022-12-14T07:43:51.823Z,23.10
2022-12-14T07:46:21.218Z,27.60
2022-12-14T07:48:50.656Z,34.90
2022-12-14T07:51:20.761Z,27.70
2022-12-14T07:53:48.567Z,29.90
2022-12-14T07:56:19.353Z,36.60
2022-12-14T07:58:46.240Z,36.30
2022-12-14T08:01:19.289Z,27.40
2022-12-14T08:03:51.922Z,25.40
2022-12-14T08:06:21.120Z,31.30
2022-12-14T08:08:48.386Z,29.30
2022-12-14T08:11:16.693Z,28.10
2022-12-14T08:13:43.881Z,27.40
2022-12-14T08:16:13.227Z,35.20
2022-12-14T08:18:41.587Z,34.80
2022-12-14T08:21:10.112Z,33.20
2022-12-14T08:23:37.412Z,32.60
2022-12-14T08:26:06.424Z,25.40
2022-12-14T08:28:35.413Z,28.40
2022-12-14T08:31:08.107Z,33.00
2022-12-14T08:33:36.964Z,27.80
2022-12-14T08:36:09.243Z,23.00
2022-12-14T08:38:37.089Z,22.40
2022-12-14T08:41:09.493Z,21.80
2022-12-14T08:43:36.529Z,20.20
2022-12-14T08:46:04.268Z,17.50
2022-12-14T08:48:31.215Z,18.00
2022-12-14T08:51:02.653Z,17.50
2022-12-14T08:53:29.994Z,16.90
2022-12-14T08:55:57.075Z,14.90
2022-12-14T08:58:24.208Z,15.50
2022-12-14T09:00:59.992Z,16.20
2022-12-14T09:03:27.128Z,15.00
2022-12-14T09:05:55.223Z,13.00
2022-12-14T09:08:22.261Z,14.40
2022-12-14T09:10:50.509Z,13.00
2022-12-14T09:13:17.985Z,14.50
2022-12-14T09:15:44.810Z,13.50
2022-12-14T09:18:11.572Z,12.10
2022-12-14T09:20:38.471Z,12.90
2022-12-14T09:23:05.516Z,12.50
2022-12-14T09:25:33.053Z,12.40
2022-12-14T09:27:59.816Z,12.00
2022-12-14T09:30:27.236Z,11.60
2022-12-14T09:32:54.647Z,12.20
2022-12-14T09:35:22.053Z,12.30
2022-12-14T09:37:48.853Z,11.50
2022-12-14T09:40:15.852Z,11.60
2022-12-14T09:43:05.665Z,11.40
2022-12-14T09:45:35.094Z,11.00
2022-12-14T09:48:11.885Z,11.90
2022-12-14T09:50:39.961Z,11.40
2022-12-14T09:53:12.334Z,9.70
2022-12-14T09:55:46.012Z,9.70
2022-12-14T09:58:16.157Z,10.80
2022-12-14T10:00:53.629Z,13.20
2022-12-14T10:03:49.388Z,13.10
2022-12-14T10:06:44.397Z,10.60
2022-12-14T10:12:08.316Z,11.30
2022-12-14T10:15:01.534Z,9.20
2022-12-14T10:17:51.532Z,10.70
2022-12-14T10:20:31.542Z,11.10
2022-12-14T10:23:01.657Z,10.10
2022-12-14T10:25:32.514Z,13.30
2022-12-14T10:28:24.109Z,9.00
2022-12-14T10:30:57.043Z,9.50
2022-12-14T10:33:29.070Z,7.40
2022-12-14T10:36:04.234Z,7.30
2022-12-14T10:38:31.320Z,7.40
2022-12-14T10:41:20.360Z,8.00
2022-12-14T10:43:57.881Z,7.00
2022-12-14T10:46:52.133Z,6.70
2022-12-14T10:49:27.478Z,6.90
2022-12-14T10:52:02.942Z,7.50
2022-12-14T10:54:45.725Z,7.10
2022-12-14T10:57:26.075Z,6.80
2022-12-14T11:00:07.750Z,7.20
2022-12-14T11:02:41.272Z,7.20
2022-12-14T11:05:23.010Z,6.70
2022-12-14T11:07:49.996Z,7.80
2022-12-14T11:10:18.545Z,7.30
2022-12-14T11:13:05.287Z,7.20
2022-12-14T11:15:39.821Z,6.10
2022-12-14T11:18:16.069Z,7.00
2022-12-14T11:20:53.572Z,8.50
2022-12-14T11:23:25.791Z,9.30
2022-12-14T11:26:01.855Z,5.90
2022-12-14T11:28:38.689Z,6.10
2022-12-14T11:31:24.207Z,6.70
2022-12-14T11:33:54.140Z,7.70
2022-12-14T11:36:32.803Z,6.60
2022-12-14T11:39:06.696Z,7.60
2022-12-14T11:41:40.260Z,7.10
2022-12-14T11:44:16.260Z,6.30
2022-12-14T11:46:52.441Z,6.70
2022-12-14T11:49:28.819Z,6.50
2022-12-14T11:51:57.817Z,14.30
2022-12-14T11:54:25.186Z,7.90
2022-12-14T11:56:59.232Z,7.50
2022-12-14T11:59:31.906Z,6.60
2022-12-14T12:02:37.379Z,7.30
2022-12-14T12:05:10.368Z,6.40
2022-12-14T12:07:59.055Z,5.80
2022-12-14T12:10:40.584Z,6.60
2022-12-14T12:13:39.127Z,6.30
2022-12-14T12:16:13.090Z,5.70
2022-12-14T12:18:50.950Z,6.80
2022-12-14T12:21:34.204Z,7.60
2022-12-14T12:24:25.260Z,6.10
2022-12-14T12:27:10.929Z,5.10
2022-12-14T12:29:45.844Z,6.00
2022-12-14T12:32:18.958Z,6.20
2022-12-14T12:35:11.057Z,17.80
2022-12-14T12:37:47.808Z,8.00
2022-12-14T12:40:27.577Z,8.70
2022-12-14T12:43:00.714Z,10.20
2022-12-14T12:45:35.169Z,7.80
2022-12-14T12:48:20.524Z,11.80
2022-12-14T12:50:54.089Z,5.60
2022-12-14T12:53:29.843Z,6.60
2022-12-14T12:56:16.501Z,8.10
2022-12-14T12:58:52.155Z,6.10
2022-12-14T13:01:25.666Z,7.10
2022-12-14T13:03:58.185Z,6.20
2022-12-14T13:06:40.336Z,6.50
2022-12-14T13:09:40.207Z,5.30
2022-12-14T13:12:22.545Z,5.70
2022-12-14T13:14:51.958Z,7.60
2022-12-14T13:17:28.941Z,7.70
2022-12-14T13:19:59.004Z,6.50
2022-12-14T13:22:31.416Z,6.50
2022-12-14T13:25:07.301Z,7.00
2022-12-14T13:27:48.863Z,7.50
2022-12-14T13:30:41.015Z,8.10
2022-12-14T13:33:26.208Z,6.40
2022-12-14T13:36:22.448Z,7.60
2022-12-14T13:39:10.008Z,7.90
2022-12-14T13:41:49.057Z,6.00
2022-12-14T13:44:34.750Z,5.90
2022-12-14T13:47:15.057Z,7.20
2022-12-14T13:50:34.306Z,8.90
2022-12-14T13:52:49.052Z,8.90
2022-12-14T13:55:28.196Z,6.40
2022-12-14T13:58:13.655Z,8.70
2022-12-14T14:00:56.403Z,7.00
2022-12-14T14:03:35.737Z,8.90
2022-12-14T14:06:11.580Z,8.50
2022-12-14T14:08:42.380Z,7.00
2022-12-14T14:14:28.394Z,7.10
2022-12-14T14:17:13.532Z,7.40
2022-12-14T14:19:41.940Z,7.80
2022-12-14T14:22:22.953Z,6.80
2022-12-14T14:25:13.890Z,7.60
2022-12-14T14:27:53.898Z,8.20
2022-12-14T14:30:49.672Z,8.00
2022-12-14T14:33:48.347Z,8.80
2022-12-14T14:36:32.894Z,8.10
2022-12-14T14:39:24.409Z,7.30
2022-12-14T14:41:54.576Z,7.90
2022-12-14T14:44:30.399Z,9.10
2022-12-14T14:46:57.390Z,9.40
2022-12-14T14:49:39.915Z,11.00
2022-12-14T14:52:38.542Z,10.60
2022-12-14T14:55:52.758Z,9.30
2022-12-14T15:00:54.175Z,9.60
2022-12-14T15:03:44.562Z,10.80
2022-12-14T15:06:18.255Z,11.50
2022-12-14T15:08:56.342Z,12.10
2022-12-14T15:11:26.253Z,9.70
2022-12-14T15:14:01.059Z,8.50
2022-12-14T15:16:32.334Z,12.40
2022-12-14T15:19:35.927Z,8.60
2022-12-14T15:22:09.248Z,8.90
2022-12-14T15:24:42.721Z,8.70
2022-12-14T15:27:30.930Z,9.70
2022-12-14T15:30:05.023Z,10.00
2022-12-14T15:35:04.686Z,10.90
2022-12-14T15:37:44.347Z,9.20
2022-12-14T15:40:15.904Z,11.40
2022-12-14T15:43:03.461Z,11.30
2022-12-14T15:45:41.156Z,11.90
2022-12-14T15:48:13.719Z,17.10
2022-12-14T15:50:45.584Z,15.40
2022-12-14T15:53:31.546Z,12.70
2022-12-14T15:56:05.361Z,11.50
2022-12-14T15:58:38.683Z,12.70
2022-12-14T16:01:32.756Z,11.70
2022-12-14T16:04:04.737Z,9.00
2022-12-14T16:06:37.966Z,12.10
2022-12-14T16:09:20.712Z,10.80
2022-12-14T16:11:53.293Z,11.20
2022-12-14T16:14:33.822Z,10.40
2022-12-14T16:17:01.344Z,10.60
2022-12-14T16:19:45.041Z,11.20
2022-12-14T16:22:24.693Z,14.50
2022-12-14T16:25:03.753Z,12.80
2022-12-14T16:27:42.511Z,13.00
2022-12-14T16:30:32.950Z,16.00
2022-12-14T16:33:13.134Z,12.70
2022-12-14T16:35:40.000Z,14.40
2022-12-14T16:38:12.578Z,15.90
2022-12-14T16:40:43.240Z,16.00
2022-12-14T16:43:35.234Z,12.60
2022-12-14T16:46:02.315Z,13.10
2022-12-14T16:48:30.740Z,11.90
2022-12-14T16:51:32.768Z,16.10
2022-12-14T16:54:20.434Z,13.70
2022-12-14T16:56:57.053Z,14.10
2022-12-14T16:59:39.114Z,13.70
2022-12-14T17:02:27.987Z,13.40
2022-12-14T17:04:57.400Z,13.30
2022-12-14T17:07:28.041Z,17.30
2022-12-14T17:09:56.048Z,13.10
2022-12-14T17:12:24.716Z,13.00
2022-12-14T17:14:51.811Z,13.50
2022-12-14T17:17:24.257Z,11.80
2022-12-14T17:19:51.147Z,9.90
2022-12-14T17:22:24.414Z,10.10
2022-12-14T17:24:51.218Z,9.00
2022-12-14T17:27:21.465Z,9.10
2022-12-14T17:29:49.252Z,10.60
2022-12-14T17:32:17.258Z,10.70
2022-12-14T17:34:45.591Z,9.90
2022-12-14T17:37:17.360Z,10.20
2022-12-14T17:39:44.419Z,9.10
2022-12-14T17:42:13.235Z,9.10
2022-12-14T17:44:41.623Z,7.80
2022-12-14T17:47:15.218Z,8.30
2022-12-14T17:49:42.654Z,9.20
2022-12-14T17:52:31.484Z,8.50
2022-12-14T17:54:59.380Z,8.60
2022-12-14T17:57:26.436Z,9.90
2022-12-14T18:00:12.074Z,8.70
2022-12-14T18:02:41.460Z,11.40
2022-12-14T18:05:17.625Z,9.50
2022-12-14T18:07:44.394Z,9.30
2022-12-14T18:10:16.537Z,8.90
2022-12-14T18:12:44.137Z,9.40
2022-12-14T18:15:19.403Z,10.10
2022-12-14T18:17:46.528Z,10.00
2022-12-14T18:20:18.761Z,10.80
2022-12-14T18:22:49.789Z,11.80
2022-12-14T18:25:33.490Z,12.30
2022-12-14T18:28:02.724Z,10.70
2022-12-14T18:30:35.071Z,11.00
2022-12-14T18:33:07.073Z,9.50
2022-12-14T18:35:34.473Z,10.00
2022-12-14T18:38:01.228Z,7.10
2022-12-14T18:40:29.578Z,9.20
2022-12-14T18:42:57.256Z,9.80
2022-12-14T18:45:30.750Z,8.70
2022-12-14T18:47:58.683Z,9.30
2022-12-14T18:50:25.713Z,9.80
2022-12-14T18:52:55.029Z,11.70
2022-12-14T18:55:25.823Z,8.90
2022-12-14T18:57:55.702Z,10.00
2022-12-14T19:00:25.698Z,8.40
2022-12-14T19:02:56.867Z,8.20
2022-12-14T19:05:26.400Z,9.60
2022-12-14T19:07:55.318Z,9.10
2022-12-14T19:10:25.293Z,7.20
2022-12-14T19:12:52.161Z,8.90
2022-12-14T19:15:25.520Z,9.20
2022-12-14T19:17:52.847Z,9.80
2022-12-14T19:20:21.182Z,10.10
2022-12-14T19:22:48.638Z,9.30
2022-12-14T19:25:16.604Z,8.80
2022-12-14T19:28:25.720Z,8.70
2022-12-14T19:30:34.000Z,9.40
2022-12-14T19:33:01.276Z,9.90
2022-12-14T19:35:28.175Z,8.50
2022-12-14T19:37:54.982Z,7.40
2022-12-14T19:40:21.770Z,7.10
2022-12-14T19:42:48.671Z,8.50
2022-12-14T19:45:15.566Z,7.00
2022-12-14T19:47:43.665Z,8.30
2022-12-14T19:50:13.929Z,7.30
2022-12-14T19:52:41.167Z,7.00
2022-12-14T19:55:08.538Z,9.30
2022-12-14T19:57:38.270Z,10.00
2022-12-14T20:00:08.624Z,9.30
2022-12-14T20:02:38.634Z,10.00
2022-12-14T20:05:06.259Z,7.70
2022-12-14T20:07:34.718Z,11.40
2022-12-14T20:10:04.608Z,6.10
2022-12-14T20:12:32.971Z,9.30
2022-12-14T20:14:59.912Z,8.20
2022-12-14T20:17:26.701Z,12.10
2022-12-14T20:19:53.475Z,14.30
2022-12-14T20:22:20.411Z,10.40
2022-12-14T20:24:48.161Z,8.40
2022-12-14T20:27:15.508Z,7.30
2022-12-14T20:29:42.744Z,9.30
2022-12-14T20:32:09.482Z,11.00
2022-12-14T20:34:38.591Z,12.40
2022-12-14T20:37:06.052Z,6.80
2022-12-14T20:39:32.898Z,8.30
2022-12-14T20:41:59.744Z,7.80
2022-12-14T20:44:29.460Z,8.70
2022-12-14T20:46:56.261Z,8.50
2022-12-14T20:49:29.064Z,7.50
2022-12-14T20:51:56.450Z,7.80
2022-12-14T20:54:23.710Z,7.70
2022-12-14T20:56:50.899Z,7.20
2022-12-14T20:59:18.105Z,6.60
2022-12-14T21:01:50.054Z,8.80
2022-12-14T21:04:20.544Z,8.40
2022-12-14T21:06:47.294Z,8.80
2022-12-14T21:09:14.703Z,9.20
2022-12-14T21:12:05.858Z,7.60
2022-12-14T21:14:35.004Z,8.70
2022-12-14T21:17:03.401Z,10.50
2022-12-14T21:19:31.800Z,10.70
2022-12-14T21:21:58.966Z,10.50
2022-12-14T21:24:53.202Z,7.70
2022-12-14T21:27:21.978Z,10.80
2022-12-14T21:29:49.906Z,8.30
2022-12-14T21:32:17.945Z,7.20
2022-12-14T21:34:45.475Z,7.80
2022-12-14T21:37:12.737Z,7.60
2022-12-14T21:39:39.816Z,8.80
2022-12-14T21:42:09.966Z,6.10
2022-12-14T21:44:37.181Z,7.60
2022-12-14T21:47:07.857Z,8.30
2022-12-14T21:49:39.802Z,7.30
2022-12-14T21:52:11.411Z,7.30
2022-12-14T21:54:39.334Z,8.10
2022-12-14T21:57:38.879Z,7.80
2022-12-14T22:00:07.579Z,7.90
2022-12-14T22:02:41.196Z,6.80
2022-12-14T22:05:09.957Z,8.00
2022-12-14T22:07:36.793Z,9.40
2022-12-14T22:10:04.298Z,8.40
2022-12-14T22:12:31.109Z,9.50
2022-12-14T22:14:57.879Z,7.60
2022-12-14T22:17:24.968Z,9.20
2022-12-14T22:19:53.778Z,9.40
2022-12-14T22:22:20.760Z,8.60
2022-12-14T22:24:49.092Z,7.30
2022-12-14T22:27:15.909Z,7.60
2022-12-14T22:29:42.679Z,10.60
2022-12-14T22:32:11.828Z,6.60
2022-12-14T22:34:38.694Z,8.20
2022-12-14T22:37:05.477Z,6.40
2022-12-14T22:39:32.344Z,8.20
2022-12-14T22:41:59.334Z,7.70
2022-12-14T22:44:26.191Z,8.60
2022-12-14T22:46:53.109Z,7.30
2022-12-14T22:49:20.678Z,5.90
2022-12-14T22:51:47.386Z,8.10
2022-12-14T22:54:22.110Z,7.50
2022-12-14T22:57:02.102Z,5.90
2022-12-14T22:59:49.209Z,5.90
2022-12-14T23:02:16.201Z,5.30
2022-12-14T23:04:43.165Z,7.20
2022-12-14T23:07:10.493Z,6.10
2022-12-14T23:09:56.062Z,6.50
2022-12-14T23:12:41.632Z,6.50
2022-12-14T23:15:27.480Z,7.20
2022-12-14T23:18:18.996Z,6.00
2022-12-14T23:21:04.544Z,5.10
2022-12-14T23:23:50.014Z,5.50
2022-12-14T23:26:35.464Z,4.70
2022-12-14T23:29:21.102Z,5.90
2022-12-14T23:32:06.570Z,4.90
2022-12-14T23:34:52.189Z,4.80
2022-12-14T23:37:37.680Z,4.50
2022-12-14T23:40:23.726Z,4.70
2022-12-14T23:43:09.326Z,4.90
2022-12-14T23:45:54.787Z,5.40
2022-12-14T23:48:40.424Z,4.50
2022-12-14T23:51:26.103Z,5.70
2022-12-14T23:54:11.460Z,5.60
2022-12-14T23:56:56.980Z,4.60
2022-12-14T23:59:42.249Z,4.20
